Woodhaven, Michigan
Current Conditions -  °F | °C
As of 4:14 PM on Thursday 20 Nov 2014 (Local Time) from KONZ Reporting Station
Broken Clouds Broken Clouds  
Wind Chill: 14°   Ceiling: 5000
Heat Index: 27°   Visibility: 10mi
Dew Point: 12°   Wind: 16mph
Humidity: 55%   Direction: 250°WSW
Pressure: 29.97"   Gusts: 25mph
Location:  42.14°N, 83.24°W
Report Text: KONZ 202114Z AUTO 25014G22KT 10SM SCT036 SCT044 BKN050 M03/M11 A2997 RMK AO2
Loading
Personal Weather Stations






























Interactive Weather Map New forecast layout! Learn more

10-Day Weather Forecast

Advertisements
Track Severe Weather on mobile